createdAt,value
2023-03-31T00:02:07.284Z,99524.72
2023-03-31T00:04:36.224Z,99518.25
2023-03-31T00:07:05.923Z,99509.88
2023-03-31T00:09:33.427Z,99518.13
2023-03-31T00:12:00.672Z,99518.25
2023-03-31T00:14:27.933Z,99511.19
2023-03-31T00:16:55.302Z,99512.88
2023-03-31T00:19:22.654Z,99501.00
2023-03-31T00:21:51.575Z,99508.91
2023-03-31T00:24:19.210Z,99501.28
2023-03-31T00:26:46.529Z,99504.97
2023-03-31T00:29:14.343Z,99500.97
2023-03-31T00:31:41.953Z,99497.66
2023-03-31T00:34:09.549Z,99496.34
2023-03-31T00:36:47.285Z,99494.13
2023-03-31T00:39:17.877Z,99488.88
2023-03-31T00:41:45.705Z,99492.69
2023-03-31T00:44:14.887Z,99486.59
2023-03-31T00:46:45.168Z,99489.59
2023-03-31T00:49:16.178Z,99483.81
2023-03-31T00:51:44.330Z,99471.31
2023-03-31T00:54:11.692Z,99471.44
2023-03-31T00:56:42.587Z,99469.94
2023-03-31T00:59:11.940Z,99454.34
2023-03-31T01:01:42.898Z,99459.31
2023-03-31T01:04:11.500Z,99458.91
2023-03-31T01:06:46.524Z,99446.16
2023-03-31T01:09:14.597Z,99450.53
2023-03-31T01:11:44.812Z,99445.69
2023-03-31T01:14:12.064Z,99449.09
2023-03-31T01:16:39.743Z,99432.53
2023-03-31T01:19:13.074Z,99427.16
2023-03-31T01:21:59.774Z,99431.81
2023-03-31T01:24:53.849Z,99428.56
2023-03-31T01:27:30.017Z,99426.44
2023-03-31T01:30:12.368Z,99419.03
2023-03-31T01:32:55.978Z,99414.22
2023-03-31T01:35:37.864Z,99417.81
2023-03-31T01:38:31.315Z,99415.13
2023-03-31T01:41:15.935Z,99402.00
2023-03-31T01:43:48.485Z,99403.31
2023-03-31T01:46:21.464Z,99408.53
2023-03-31T01:48:55.156Z,99408.09
2023-03-31T01:51:28.973Z,99391.66
2023-03-31T01:54:00.327Z,99392.75
2023-03-31T01:56:32.351Z,99395.44
2023-03-31T01:59:02.803Z,99377.88
2023-03-31T02:01:32.021Z,99381.72
2023-03-31T02:04:01.578Z,99377.88
2023-03-31T02:06:31.967Z,99372.13
2023-03-31T02:09:02.202Z,99377.84
2023-03-31T02:11:31.945Z,99370.03
2023-03-31T02:14:02.297Z,99364.41
2023-03-31T02:16:32.256Z,99362.94
2023-03-31T02:19:03.633Z,99359.53
2023-03-31T02:21:32.149Z,99357.41
2023-03-31T02:24:00.858Z,99351.84
2023-03-31T02:26:29.744Z,99354.06
2023-03-31T02:28:58.396Z,99347.25
2023-03-31T02:31:29.728Z,99336.38
2023-03-31T02:33:57.277Z,99332.16
2023-03-31T02:36:25.327Z,99333.47
2023-03-31T02:38:54.541Z,99332.09
2023-03-31T02:41:22.024Z,99329.56
2023-03-31T02:43:49.291Z,99336.47
2023-03-31T02:46:17.962Z,99329.44
2023-03-31T02:48:48.007Z,99331.38
2023-03-31T02:51:26.426Z,99326.97
2023-03-31T02:54:03.204Z,99321.59
2023-03-31T02:56:45.402Z,99322.75
2023-03-31T02:59:32.346Z,99308.94
2023-03-31T03:02:15.246Z,99313.84
2023-03-31T03:04:50.729Z,99309.69
2023-03-31T03:07:26.623Z,99313.56
2023-03-31T03:09:58.798Z,99303.84
2023-03-31T03:12:26.971Z,99304.44
2023-03-31T03:14:56.761Z,99303.13
2023-03-31T03:17:27.657Z,99306.75
2023-03-31T03:19:56.133Z,99307.53
2023-03-31T03:22:23.823Z,99310.47
2023-03-31T03:24:52.200Z,99296.81
2023-03-31T03:27:19.544Z,99293.22
2023-03-31T03:29:47.570Z,99288.31
2023-03-31T03:32:15.229Z,99282.13
2023-03-31T03:34:43.990Z,99281.00
2023-03-31T03:37:11.599Z,99275.16
2023-03-31T03:39:38.868Z,99278.03
2023-03-31T03:42:06.246Z,99274.88
2023-03-31T03:44:33.506Z,99270.59
2023-03-31T03:47:00.787Z,99273.28
2023-03-31T03:49:28.065Z,99273.31
2023-03-31T03:51:56.810Z,99264.69
2023-03-31T03:54:24.092Z,99268.56
2023-03-31T03:56:51.412Z,99265.66
2023-03-31T03:59:18.678Z,99255.28
2023-03-31T04:01:45.987Z,99259.34
2023-03-31T04:04:13.323Z,99249.34
2023-03-31T04:06:40.655Z,99245.47
2023-03-31T04:09:09.309Z,99247.06
2023-03-31T04:11:36.630Z,99241.97
2023-03-31T04:14:03.884Z,99240.28
2023-03-31T04:16:32.345Z,99237.88
2023-03-31T04:19:03.657Z,99229.31
2023-03-31T04:21:34.576Z,99223.41
2023-03-31T04:24:04.384Z,99227.91
2023-03-31T04:26:42.763Z,99228.13
2023-03-31T04:29:10.541Z,99218.25
2023-03-31T04:31:42.718Z,99221.41
2023-03-31T04:34:13.120Z,99213.94
2023-03-31T04:36:42.595Z,99211.50
2023-03-31T04:39:11.640Z,99204.00
2023-03-31T04:41:40.312Z,99202.53
2023-03-31T04:44:07.588Z,99202.41
2023-03-31T04:46:35.396Z,99195.97
2023-03-31T04:49:02.912Z,99198.13
2023-03-31T04:51:30.426Z,99183.72
2023-03-31T04:53:57.696Z,99190.28
2023-03-31T04:56:25.013Z,99181.75
2023-03-31T04:58:53.600Z,99181.69
2023-03-31T05:01:21.089Z,99176.09
2023-03-31T05:03:48.581Z,99181.78
2023-03-31T05:06:16.321Z,99178.41
2023-03-31T05:08:43.972Z,99171.09
2023-03-31T05:11:11.396Z,99158.94
2023-03-31T05:13:38.850Z,99159.22
2023-03-31T05:16:12.215Z,99160.22
2023-03-31T05:18:39.611Z,99153.28
2023-03-31T05:21:10.693Z,99156.94
2023-03-31T05:23:37.986Z,99149.28
2023-03-31T05:26:06.130Z,99145.47
2023-03-31T05:28:33.551Z,99138.56
2023-03-31T05:31:01.386Z,99133.06
2023-03-31T05:33:30.135Z,99130.28
2023-03-31T05:35:57.648Z,99130.94
2023-03-31T05:38:25.015Z,99111.50
2023-03-31T05:40:52.284Z,99110.09
2023-03-31T05:43:19.521Z,99100.78
2023-03-31T05:45:46.798Z,99096.56
2023-03-31T05:48:14.131Z,99085.69
2023-03-31T05:50:44.040Z,99083.56
2023-03-31T05:53:11.309Z,99079.19
2023-03-31T05:55:38.918Z,99073.31
2023-03-31T05:58:06.699Z,99067.94
2023-03-31T06:00:34.086Z,99074.53
2023-03-31T06:03:01.440Z,99072.69
2023-03-31T06:05:31.121Z,99061.50
2023-03-31T06:07:59.759Z,99060.91
2023-03-31T06:10:27.027Z,99055.34
2023-03-31T06:12:54.414Z,99051.22
2023-03-31T06:15:21.702Z,99048.53
2023-03-31T06:17:49.004Z,99048.34
2023-03-31T06:20:27.285Z,99064.31
2023-03-31T06:22:55.359Z,99038.34
2023-03-31T06:25:24.003Z,99039.38
2023-03-31T06:27:51.264Z,99042.91
2023-03-31T06:30:18.507Z,99040.50
2023-03-31T06:32:45.865Z,99034.81
2023-03-31T06:35:13.154Z,99033.16
2023-03-31T06:37:40.392Z,99020.09
2023-03-31T06:40:08.627Z,99024.94
2023-03-31T06:42:37.209Z,99010.34
2023-03-31T06:45:04.518Z,99009.13
2023-03-31T06:47:31.798Z,99016.47
2023-03-31T06:49:59.090Z,99014.41
2023-03-31T06:52:26.368Z,99019.06
2023-03-31T06:54:53.626Z,99013.47
2023-03-31T06:57:21.278Z,99018.66
2023-03-31T06:59:49.955Z,99011.25
2023-03-31T07:02:17.285Z,99015.63
2023-03-31T07:04:44.597Z,99000.47
2023-03-31T07:07:11.978Z,98994.06
2023-03-31T07:09:39.264Z,98982.22
2023-03-31T07:12:06.623Z,98990.31
2023-03-31T07:14:34.147Z,98991.78
2023-03-31T07:17:03.192Z,98987.38
2023-03-31T07:19:30.460Z,98994.31
2023-03-31T07:21:57.716Z,98994.25
2023-03-31T07:24:25.051Z,99001.41
2023-03-31T07:26:52.326Z,98986.75
2023-03-31T07:29:20.461Z,98993.44
2023-03-31T07:31:47.924Z,98987.00
2023-03-31T07:34:16.651Z,98992.94
2023-03-31T07:36:43.960Z,98979.28
2023-03-31T07:39:11.249Z,98970.06
2023-03-31T07:41:38.603Z,98961.19
2023-03-31T07:44:05.897Z,98950.34
2023-03-31T07:46:33.233Z,98949.00
2023-03-31T07:49:03.061Z,98941.69
2023-03-31T07:51:31.808Z,98939.72
2023-03-31T07:53:59.077Z,98941.84
2023-03-31T07:56:26.878Z,98929.03
2023-03-31T07:58:57.391Z,98933.47
2023-03-31T08:01:26.201Z,98928.75
2023-03-31T08:03:54.514Z,98924.84
2023-03-31T08:06:22.972Z,98928.03
2023-03-31T08:08:51.633Z,98925.53
2023-03-31T08:11:21.041Z,98930.41
2023-03-31T08:13:48.350Z,98928.91
2023-03-31T08:16:15.685Z,98923.84
2023-03-31T08:18:42.983Z,98927.91
2023-03-31T08:21:10.675Z,98924.19
2023-03-31T08:23:38.020Z,98929.94
2023-03-31T08:26:10.252Z,98933.47
2023-03-31T08:28:37.522Z,98925.53
2023-03-31T08:31:05.878Z,98928.22
2023-03-31T08:33:33.376Z,98926.03
2023-03-31T08:36:02.969Z,98921.81
2023-03-31T08:38:30.382Z,98917.94
2023-03-31T08:41:01.500Z,98911.03
2023-03-31T08:43:32.092Z,98914.41
2023-03-31T08:45:59.686Z,98914.91
2023-03-31T08:48:29.220Z,98914.38
2023-03-31T08:50:59.667Z,98899.03
2023-03-31T08:53:29.288Z,98904.78
2023-03-31T08:55:57.688Z,98897.53
2023-03-31T08:58:33.201Z,98895.16
2023-03-31T09:01:02.576Z,98883.84
2023-03-31T09:03:32.489Z,98889.25
2023-03-31T09:06:02.982Z,98887.88
2023-03-31T09:08:34.721Z,98888.25
2023-03-31T09:11:06.481Z,98888.75
2023-03-31T09:13:48.357Z,98886.03
2023-03-31T09:16:16.998Z,98875.16
2023-03-31T09:18:46.810Z,98876.88
2023-03-31T09:21:17.384Z,98863.66
2023-03-31T09:23:47.530Z,98857.63
2023-03-31T09:26:19.601Z,98852.28
2023-03-31T09:28:48.218Z,98861.00
2023-03-31T09:31:16.964Z,98856.69
2023-03-31T09:33:46.126Z,98848.88
2023-03-31T09:36:16.367Z,98843.63
2023-03-31T09:38:44.475Z,98837.22
2023-03-31T09:41:13.080Z,98825.78
2023-03-31T09:43:41.366Z,98820.59
2023-03-31T09:46:16.784Z,98818.88
2023-03-31T09:48:48.388Z,98819.78
2023-03-31T09:51:19.098Z,98808.81
2023-03-31T09:53:48.268Z,98810.84
2023-03-31T09:56:32.412Z,98811.19
2023-03-31T09:59:02.318Z,98815.53
2023-03-31T10:01:31.559Z,98807.28
2023-03-31T10:03:58.984Z,98807.41
2023-03-31T10:06:26.836Z,98805.09
2023-03-31T10:08:55.946Z,98805.38
2023-03-31T10:11:23.441Z,98798.16
2023-03-31T10:13:58.708Z,98786.50
2023-03-31T10:16:29.363Z,98793.59
2023-03-31T10:19:12.148Z,98795.97
2023-03-31T10:21:39.549Z,98794.09
2023-03-31T10:24:09.312Z,98798.28
2023-03-31T10:26:36.817Z,98790.84
2023-03-31T10:29:11.390Z,98782.91
2023-03-31T10:31:38.938Z,98780.22
2023-03-31T10:34:08.755Z,98766.03
2023-03-31T10:36:36.494Z,98763.16
2023-03-31T10:39:06.473Z,98764.56
2023-03-31T10:41:34.282Z,98766.44
2023-03-31T10:44:03.080Z,98758.84
2023-03-31T10:46:44.110Z,98754.97
2023-03-31T10:49:25.371Z,98753.16
2023-03-31T10:51:53.372Z,98742.69
2023-03-31T10:54:21.427Z,98746.72
2023-03-31T10:56:51.910Z,98749.75
2023-03-31T10:59:33.860Z,98742.34
2023-03-31T11:02:21.095Z,98736.97
2023-03-31T11:05:02.767Z,98744.06
2023-03-31T11:07:39.438Z,98736.28
2023-03-31T11:10:30.542Z,98725.34
2023-03-31T11:13:00.623Z,98728.88
2023-03-31T11:15:31.022Z,98726.34
2023-03-31T11:18:04.411Z,98716.41
2023-03-31T11:20:37.637Z,98717.91
2023-03-31T11:23:11.483Z,98717.06
2023-03-31T11:25:41.117Z,98715.56
2023-03-31T11:28:26.217Z,98707.66
2023-03-31T11:30:55.441Z,98704.63
2023-03-31T11:33:46.639Z,98698.50
2023-03-31T11:36:22.216Z,98703.91
2023-03-31T11:38:56.863Z,98683.72
2023-03-31T11:41:27.345Z,98683.69
2023-03-31T11:43:56.473Z,98676.94
2023-03-31T11:46:26.076Z,98674.28
2023-03-31T11:48:57.396Z,98663.84
2023-03-31T11:51:27.767Z,98659.44
2023-03-31T11:53:57.187Z,98663.13
2023-03-31T11:56:36.217Z,98664.38
2023-03-31T11:59:04.276Z,98661.34
2023-03-31T12:01:34.904Z,98662.38
2023-03-31T12:04:04.992Z,98666.53
2023-03-31T12:06:35.990Z,98666.94
2023-03-31T12:09:07.684Z,98657.84
2023-03-31T12:11:38.967Z,98650.53
2023-03-31T12:14:12.417Z,98640.53
2023-03-31T12:16:42.187Z,98630.59
2023-03-31T12:19:12.532Z,98631.97
2023-03-31T12:21:44.322Z,98625.75
2023-03-31T12:24:12.922Z,98622.22
2023-03-31T12:26:45.625Z,98620.94
2023-03-31T12:29:18.623Z,98615.03
2023-03-31T12:31:47.021Z,98604.97
2023-03-31T12:34:17.352Z,98599.59
2023-03-31T12:36:54.855Z,98594.22
2023-03-31T12:39:28.528Z,98591.84
2023-03-31T12:42:05.027Z,98594.75
2023-03-31T12:44:39.590Z,98589.00
2023-03-31T12:47:18.509Z,98589.00
2023-03-31T12:49:52.780Z,98577.41
2023-03-31T12:52:26.480Z,98586.66
2023-03-31T12:55:21.623Z,98574.19
2023-03-31T12:57:48.920Z,98571.50
2023-03-31T13:00:24.645Z,98560.44
2023-03-31T13:02:52.191Z,98546.09
2023-03-31T13:05:45.416Z,98554.94
2023-03-31T13:08:33.946Z,98539.31
2023-03-31T13:11:01.339Z,98534.44
2023-03-31T13:13:28.612Z,98535.13
2023-03-31T13:15:56.823Z,98539.66
2023-03-31T13:18:24.632Z,98524.53
2023-03-31T13:20:59.492Z,98520.81
2023-03-31T13:23:31.393Z,98520.97
2023-03-31T13:25:59.378Z,98520.84
2023-03-31T13:28:33.752Z,98515.59
2023-03-31T13:31:02.945Z,98501.13
2023-03-31T13:33:44.398Z,98494.44
2023-03-31T13:36:30.488Z,98489.75
2023-03-31T13:39:06.311Z,98491.63
2023-03-31T13:41:41.277Z,98488.91
2023-03-31T13:44:17.700Z,98482.00
2023-03-31T13:46:51.791Z,98477.56
2023-03-31T13:49:36.699Z,98465.38
2023-03-31T13:52:05.497Z,98468.09
2023-03-31T13:54:46.039Z,98455.34
2023-03-31T13:57:32.246Z,98453.50
2023-03-31T14:00:12.288Z,98458.97
2023-03-31T14:02:53.672Z,98467.53
2023-03-31T14:05:26.405Z,98464.50
2023-03-31T14:07:55.576Z,98471.22
2023-03-31T14:10:25.766Z,98471.75
2023-03-31T14:12:53.203Z,98472.94
2023-03-31T14:15:21.570Z,98476.56
2023-03-31T14:17:49.001Z,98465.69
2023-03-31T14:20:27.275Z,98478.50
2023-03-31T14:23:00.332Z,98466.53
2023-03-31T14:25:37.133Z,98467.69
2023-03-31T14:28:13.649Z,98474.22
2023-03-31T14:30:46.763Z,98468.16
2023-03-31T14:33:19.370Z,98472.28
2023-03-31T14:35:53.538Z,98461.97
2023-03-31T14:38:22.233Z,98466.00
2023-03-31T14:40:53.821Z,98462.13
2023-03-31T14:43:22.006Z,98452.81
2023-03-31T14:45:57.882Z,98448.44
2023-03-31T14:48:25.307Z,98455.44
2023-03-31T14:50:57.798Z,98444.13
2023-03-31T14:53:26.289Z,98438.00
2023-03-31T14:55:59.175Z,98430.81
2023-03-31T14:58:28.934Z,98430.63
2023-03-31T15:00:56.444Z,98430.25
2023-03-31T15:03:26.077Z,98429.44
2023-03-31T15:05:57.146Z,98418.59
2023-03-31T15:08:25.096Z,98422.56
2023-03-31T15:11:02.282Z,98428.44
2023-03-31T15:13:44.319Z,98429.75
2023-03-31T15:16:20.566Z,98430.47
2023-03-31T15:18:48.502Z,98431.91
2023-03-31T15:21:20.995Z,98433.53
2023-03-31T15:23:48.302Z,98432.41
2023-03-31T15:26:22.580Z,98427.53
2023-03-31T15:28:55.250Z,98425.34
2023-03-31T15:31:22.886Z,98439.34
2023-03-31T15:33:50.598Z,98433.34
2023-03-31T15:36:18.021Z,98425.94
2023-03-31T15:38:45.390Z,98418.50
2023-03-31T15:41:13.339Z,98412.63
2023-03-31T15:43:46.019Z,98411.28
2023-03-31T15:46:19.350Z,98418.28
2023-03-31T15:48:51.068Z,98415.41
2023-03-31T15:51:20.337Z,98407.84
2023-03-31T15:53:49.206Z,98408.84
2023-03-31T15:56:27.061Z,98406.44
2023-03-31T15:58:56.070Z,98403.19
2023-03-31T16:01:29.339Z,98408.34
2023-03-31T16:03:57.310Z,98405.31
2023-03-31T16:06:30.538Z,98404.66
2023-03-31T16:09:01.096Z,98394.28
2023-03-31T16:11:34.029Z,98396.91
2023-03-31T16:14:06.540Z,98397.09
2023-03-31T16:16:35.504Z,98386.78
2023-03-31T16:19:04.853Z,98390.94
2023-03-31T16:21:36.896Z,98386.25
2023-03-31T16:24:04.428Z,98390.06
2023-03-31T16:26:32.895Z,98400.91
2023-03-31T16:29:01.593Z,98400.38
2023-03-31T16:31:30.412Z,98403.13
2023-03-31T16:33:59.077Z,98399.22
2023-03-31T16:36:27.198Z,98406.50
2023-03-31T16:38:55.334Z,98407.59
2023-03-31T16:41:23.896Z,98416.34
2023-03-31T16:43:52.430Z,98431.84
2023-03-31T16:46:19.882Z,98447.53
2023-03-31T16:48:47.243Z,98448.69
2023-03-31T16:51:17.135Z,98438.94
2023-03-31T16:53:45.036Z,98441.25
2023-03-31T16:56:13.593Z,98448.00
2023-03-31T16:58:41.395Z,98459.91
2023-03-31T17:01:09.288Z,98466.13
2023-03-31T17:03:38.383Z,98461.03
2023-03-31T17:06:07.021Z,98464.00
2023-03-31T17:08:35.693Z,98458.06
2023-03-31T17:11:03.955Z,98465.28
2023-03-31T17:13:35.467Z,98462.56
2023-03-31T17:16:16.240Z,98451.44
2023-03-31T17:18:46.469Z,98462.03
2023-03-31T17:21:15.062Z,98459.47
2023-03-31T17:23:43.672Z,98461.88
2023-03-31T17:26:12.577Z,98446.94
2023-03-31T17:28:40.384Z,98445.00
2023-03-31T17:31:11.828Z,98446.16
2023-03-31T17:33:40.021Z,98444.25
2023-03-31T17:36:07.570Z,98450.94
2023-03-31T17:38:34.930Z,98463.22
2023-03-31T17:41:05.454Z,98464.03
2023-03-31T17:43:33.282Z,98467.22
2023-03-31T17:46:04.236Z,98465.53
2023-03-31T17:48:33.950Z,98467.25
2023-03-31T17:51:04.514Z,98467.25
2023-03-31T17:53:31.780Z,98468.78
2023-03-31T17:55:59.090Z,98479.00
2023-03-31T17:58:28.208Z,98482.13
2023-03-31T18:00:55.618Z,98484.50
2023-03-31T18:03:22.915Z,98478.66
2023-03-31T18:05:50.645Z,98483.91
2023-03-31T18:08:17.930Z,98482.53
2023-03-31T18:10:45.810Z,98489.13
2023-03-31T18:13:13.625Z,98485.16
2023-03-31T18:15:49.034Z,98489.34
2023-03-31T18:18:16.550Z,98490.66
2023-03-31T18:20:44.571Z,98487.88
2023-03-31T18:23:12.006Z,98498.00
2023-03-31T18:25:39.347Z,98506.22
2023-03-31T18:28:06.766Z,98505.28
2023-03-31T18:30:34.291Z,98510.13
2023-03-31T18:33:03.114Z,98516.56
2023-03-31T18:35:30.553Z,98513.66
2023-03-31T18:37:58.067Z,98516.41
2023-03-31T18:40:25.353Z,98516.63
2023-03-31T18:42:52.645Z,98515.09
2023-03-31T18:45:19.912Z,98513.50
2023-03-31T18:47:47.552Z,98513.09
2023-03-31T18:50:16.256Z,98513.66
2023-03-31T18:52:43.643Z,98513.78
2023-03-31T18:55:11.020Z,98519.97
2023-03-31T18:57:38.339Z,98516.41
2023-03-31T19:00:07.030Z,98516.25
2023-03-31T19:02:34.506Z,98517.63
2023-03-31T19:05:03.418Z,98510.97
2023-03-31T19:07:32.234Z,98517.63
2023-03-31T19:09:59.531Z,98516.69
2023-03-31T19:12:27.239Z,98511.97
2023-03-31T19:14:54.501Z,98515.25
2023-03-31T19:17:22.134Z,98511.19
2023-03-31T19:19:49.644Z,98518.78
2023-03-31T19:22:17.121Z,98510.25
2023-03-31T19:24:45.923Z,98511.38
2023-03-31T19:27:13.612Z,98509.53
2023-03-31T19:29:40.989Z,98513.97
2023-03-31T19:32:08.487Z,98507.53
2023-03-31T19:34:36.338Z,98516.97
2023-03-31T19:37:04.117Z,98518.50
2023-03-31T19:39:32.341Z,98516.44
2023-03-31T19:42:02.078Z,98519.88
2023-03-31T19:44:29.750Z,98517.63
2023-03-31T19:47:00.492Z,98522.56
2023-03-31T19:49:27.798Z,98519.19
2023-03-31T19:51:55.873Z,98521.75
2023-03-31T19:54:23.254Z,98521.28
2023-03-31T19:56:50.637Z,98518.72
2023-03-31T19:59:19.262Z,98504.00
2023-03-31T20:01:46.659Z,98512.00
2023-03-31T20:04:17.110Z,98509.22
2023-03-31T20:06:45.287Z,98504.41
2023-03-31T20:09:13.407Z,98518.72
2023-03-31T20:11:43.211Z,98515.97
2023-03-31T20:14:11.192Z,98514.16
2023-03-31T20:16:39.916Z,98512.44
2023-03-31T20:19:07.779Z,98507.56
2023-03-31T20:21:36.500Z,98509.22
2023-03-31T20:24:04.365Z,98514.31
2023-03-31T20:26:32.880Z,98519.38
2023-03-31T20:29:01.835Z,98522.63
2023-03-31T20:31:31.406Z,98521.03
2023-03-31T20:34:03.382Z,98520.88
2023-03-31T20:36:31.857Z,98513.38
2023-03-31T20:39:00.166Z,98525.50
2023-03-31T20:41:28.853Z,98523.19
2023-03-31T20:43:56.613Z,98524.50
2023-03-31T20:46:23.927Z,98524.81
2023-03-31T20:48:52.207Z,98523.88
2023-03-31T20:51:22.123Z,98530.09
2023-03-31T20:53:50.215Z,98525.56
2023-03-31T20:56:18.339Z,98522.47
2023-03-31T20:58:46.356Z,98528.44
2023-03-31T21:01:14.091Z,98536.25
2023-03-31T21:03:41.591Z,98538.88
2023-03-31T21:06:11.621Z,98532.94
2023-03-31T21:08:41.636Z,98541.69
2023-03-31T21:11:09.864Z,98537.31
2023-03-31T21:13:37.168Z,98537.06
2023-03-31T21:16:04.786Z,98540.25
2023-03-31T21:18:32.889Z,98536.41
2023-03-31T21:21:00.963Z,98544.38
2023-03-31T21:23:29.223Z,98541.63
2023-03-31T21:25:58.885Z,98548.38
2023-03-31T21:28:27.283Z,98537.66
2023-03-31T21:30:55.880Z,98543.16
2023-03-31T21:33:24.123Z,98540.63
2023-03-31T21:35:52.005Z,98537.00
2023-03-31T21:38:20.073Z,98539.09
2023-03-31T21:40:48.258Z,98543.94
2023-03-31T21:43:16.912Z,98539.78
2023-03-31T21:45:44.194Z,98540.03
2023-03-31T21:48:12.460Z,98539.00
2023-03-31T21:50:40.430Z,98540.69
2023-03-31T21:53:08.389Z,98546.34
2023-03-31T21:55:37.189Z,98538.03
2023-03-31T21:58:05.462Z,98548.16
2023-03-31T22:00:35.857Z,98538.53
2023-03-31T22:03:22.250Z,98544.69
2023-03-31T22:05:50.532Z,98542.25
2023-03-31T22:08:17.806Z,98540.47
2023-03-31T22:10:48.317Z,98550.06
2023-03-31T22:13:15.859Z,98552.50
2023-03-31T22:15:44.527Z,98543.00
2023-03-31T22:18:12.501Z,98546.31
2023-03-31T22:20:40.145Z,98545.06
2023-03-31T22:23:07.798Z,98534.56
2023-03-31T22:25:35.328Z,98535.44
2023-03-31T22:28:05.155Z,98540.78
2023-03-31T22:30:33.924Z,98532.13
2023-03-31T22:33:02.565Z,98531.19
2023-03-31T22:35:29.963Z,98530.06
2023-03-31T22:37:57.229Z,98532.56
2023-03-31T22:40:24.650Z,98527.88
2023-03-31T22:42:54.803Z,98530.56
2023-03-31T22:45:22.164Z,98530.81
2023-03-31T22:47:49.441Z,98527.56
2023-03-31T22:50:18.124Z,98528.44
2023-03-31T22:52:46.033Z,98527.84
2023-03-31T22:55:13.313Z,98522.84
2023-03-31T22:57:40.601Z,98526.28
2023-03-31T23:00:09.102Z,98530.34
2023-03-31T23:02:36.455Z,98514.00
2023-03-31T23:05:03.776Z,98523.31
2023-03-31T23:07:32.564Z,98529.59
2023-03-31T23:09:59.845Z,98527.56
2023-03-31T23:12:27.798Z,98514.84
2023-03-31T23:14:55.616Z,98518.53
2023-03-31T23:17:22.913Z,98526.13
2023-03-31T23:19:50.465Z,98513.25
2023-03-31T23:22:18.580Z,98515.75
2023-03-31T23:24:49.161Z,98521.84
2023-03-31T23:27:18.674Z,98515.09
2023-03-31T23:29:46.276Z,98531.13
2023-03-31T23:32:14.022Z,98512.16
2023-03-31T23:34:42.208Z,98520.53
2023-03-31T23:37:09.755Z,98513.31
2023-03-31T23:39:38.665Z,98518.78
2023-03-31T23:42:07.910Z,98507.09
2023-03-31T23:44:37.141Z,98524.97
2023-03-31T23:47:04.788Z,98521.94
2023-03-31T23:49:32.430Z,98528.00
2023-03-31T23:51:59.683Z,98526.50
2023-03-31T23:54:27.223Z,98521.84
2023-03-31T23:56:54.515Z,98523.31
2023-03-31T23:59:23.188Z,98527.63
